Altamont, New York
Current Conditions -  °F | °C
As of 5:51 AM on Friday 31 Oct 2014 (Local Time) from KALB Reporting Station
Few Clouds Few Clouds  
Wind Chill: 34°   Ceiling: Unl
Heat Index: 34°   Visibility: 10mi
Dew Point: 31°   Wind: 0mph
Humidity: 89%   Direction: NA
Pressure: 30.04"   Gusts: NA
Location:  42.7°N, 74.03°W
Report Text: KALB 310951Z 00000KT 10SM FEW048 01/M01 A3004 RMK AO2 SLP176 T00111006
Loading
Personal Weather Stations






























Interactive Weather Map New forecast layout! Learn more

10-Day Weather Forecast

Advertisements
Track Severe Weather on mobile